Time;durP1;ratioP1;P1;durP2;ratioP2;P2;SDS_P1;SDS_P2;PMS_P1;PMS_P2;Temp;Humidity;BMP_temperature;BMP_pressure;BME280_temperature;BME280_humidity;BME280_pressure;Samples;Min_cycle;Max_cycle;Signal;HPM_P1;HPM_P2
2021/08/05 00:01:38;;;;;;;4.35;2.17;;;19.90;80.80;;;;;;5062907;28;20471;-72
2021/08/05 00:04:03;;;;;;;4.05;2.17;;;20.00;80.80;;;;;;5071150;28;20052;-71
2021/08/05 00:06:29;;;;;;;4.45;2.08;;;19.90;80.80;;;;;;5052656;28;20359;-71
2021/08/05 00:08:55;;;;;;;5.22;2.10;;;19.90;80.80;;;;;;5052626;28;20029;-72
2021/08/05 00:11:20;;;;;;;4.80;1.80;;;19.90;80.90;;;;;;5070682;28;20017;-71
2021/08/05 00:13:46;;;;;;;4.80;2.33;;;19.90;80.90;;;;;;5055956;28;20107;-72
2021/08/05 00:16:11;;;;;;;6.07;2.33;;;19.90;80.90;;;;;;5049695;28;20037;-72
2021/08/05 00:18:37;;;;;;;4.50;2.10;;;19.90;80.90;;;;;;5066569;28;20064;-72
2021/08/05 00:21:02;;;;;;;4.03;2.00;;;19.90;80.90;;;;;;5060629;28;20036;-71
2021/08/05 00:23:28;;;;;;;4.13;2.08;;;19.90;80.90;;;;;;5059256;28;20032;-72
2021/08/05 00:25:54;;;;;;;5.20;2.30;;;19.90;80.90;;;;;;5070368;28;20016;-72
2021/08/05 00:28:19;;;;;;;4.10;2.38;;;19.90;80.90;;;;;;5072061;28;20048;-72
2021/08/05 00:30:45;;;;;;;3.08;1.88;;;19.80;81.00;;;;;;5071867;28;20025;-72
2021/08/05 00:33:10;;;;;;;5.30;2.20;;;19.80;80.90;;;;;;5056512;28;20106;-71
2021/08/05 00:35:36;;;;;;;7.13;2.20;;;19.80;80.90;;;;;;5056143;28;20036;-72
2021/08/05 00:38:01;;;;;;;5.30;2.00;;;19.80;81.00;;;;;;5074073;28;20028;-71
2021/08/05 00:40:27;;;;;;;4.90;2.17;;;19.80;81.00;;;;;;5056533;28;20027;-71
2021/08/05 00:42:53;;;;;;;5.65;2.10;;;19.80;81.00;;;;;;5067297;28;20031;-72
2021/08/05 00:45:19;;;;;;;4.95;2.08;;;19.80;81.00;;;;;;5056051;28;20024;-71
2021/08/05 00:47:44;;;;;;;5.78;2.40;;;19.80;81.00;;;;;;5073935;28;20097;-71
2021/08/05 00:50:11;;;;;;;4.88;2.13;;;19.80;81.60;;;;;;5056108;28;20123;-72
2021/08/05 00:52:37;;;;;;;5.93;2.25;;;19.80;81.10;;;;;;5056947;28;20020;-71
2021/08/05 00:55:03;;;;;;;4.47;2.30;;;19.80;81.10;;;;;;5073821;28;20020;-72
2021/08/05 00:57:29;;;;;;;3.67;1.77;;;19.80;81.10;;;;;;5073598;28;20074;-73
2021/08/05 00:59:54;;;;;;;4.72;2.30;;;19.80;81.10;;;;;;5056052;28;20028;-72
2021/08/05 01:02:20;;;;;;;4.03;2.00;;;19.80;81.20;;;;;;5063329;28;20025;-72
2021/08/05 01:04:49;;;;;;;5.22;2.28;;;19.70;81.10;;;;;;5073604;28;20431;-72
2021/08/05 01:07:17;;;;;;;5.55;2.28;;;19.70;81.20;;;;;;5073402;28;20032;-72
2021/08/05 01:10:09;;;;;;;5.80;2.33;;;19.70;81.20;;;;;;5073394;28;20023;-71
2021/08/05 01:12:50;;;;;;;7.10;2.40;;;19.70;81.10;;;;;;5069893;28;20025;-71
2021/08/05 01:15:21;;;;;;;5.18;2.00;;;19.70;81.20;;;;;;5073497;28;20073;-71
2021/08/05 01:17:49;;;;;;;4.05;2.03;;;19.70;81.20;;;;;;5073708;28;20482;-72
2021/08/05 01:20:19;;;;;;;5.10;2.03;;;19.70;81.20;;;;;;5073226;28;20505;-71
2021/08/05 01:22:53;;;;;;;4.82;1.95;;;19.70;81.30;;;;;;5072584;28;20025;-72
2021/08/05 01:25:31;;;;;;;4.93;1.90;;;19.70;81.30;;;;;;5072607;28;20036;-73
2021/08/05 01:28:00;;;;;;;5.28;2.25;;;19.70;81.30;;;;;;5066351;28;20044;-70
2021/08/05 01:30:27;;;;;;;6.20;2.25;;;19.70;81.30;;;;;;5060214;28;20036;-74
2021/08/05 01:32:54;;;;;;;5.47;2.22;;;19.70;81.40;;;;;;5068452;28;20016;-71
2021/08/05 01:35:21;;;;;;;5.15;2.10;;;19.70;81.40;;;;;;5072928;28;20028;-71
2021/08/05 01:37:48;;;;;;;4.32;2.20;;;19.70;81.50;;;;;;5073221;28;20031;-71
2021/08/05 01:40:14;;;;;;;6.03;2.25;;;19.70;81.40;;;;;;5063964;28;20557;-72
2021/08/05 01:42:41;;;;;;;7.03;2.17;;;19.70;81.50;;;;;;5072390;28;20111;-71
2021/08/05 01:45:09;;;;;;;4.85;2.10;;;19.70;81.40;;;;;;5072189;28;20033;-71
2021/08/05 01:47:36;;;;;;;4.68;1.98;;;19.60;81.40;;;;;;5054817;28;20429;-70
2021/08/05 01:50:02;;;;;;;7.32;2.33;;;19.60;81.40;;;;;;5061981;28;20025;-70
2021/08/05 01:52:27;;;;;;;4.47;2.38;;;19.60;81.50;;;;;;5071190;28;20025;-71
2021/08/05 01:54:53;;;;;;;7.60;2.22;;;19.60;81.50;;;;;;5072258;28;20037;-72
2021/08/05 01:57:18;;;;;;;6.43;2.30;;;19.60;81.50;;;;;;5070975;28;20028;-71
2021/08/05 01:59:44;;;;;;;4.78;1.90;;;19.60;81.50;;;;;;5069326;28;20568;-71
2021/08/05 02:02:12;;;;;;;3.83;2.00;;;19.60;81.50;;;;;;5073279;28;20050;-71
2021/08/05 02:05:00;;;;;;;4.95;2.20;;;19.60;81.60;;;;;;5054420;28;20039;-71
2021/08/05 02:07:29;;;;;;;6.22;2.40;;;19.70;81.60;;;;;;5054619;28;20020;-72
2021/08/05 02:10:10;;;;;;;5.68;2.30;;;19.60;82.10;;;;;;5072031;28;20417;-70
2021/08/05 02:13:07;;;;;;;4.30;2.13;;;19.60;82.00;;;;;;5054207;28;20051;-71
2021/08/05 02:15:35;;;;;;;7.10;2.35;;;19.60;81.50;;;;;;5054034;28;20024;-71
2021/08/05 02:18:03;;;;;;;6.18;2.40;;;19.60;81.70;;;;;;5071246;28;20032;-72
2021/08/05 02:20:29;;;;;;;4.25;1.90;;;19.60;81.70;;;;;;5054230;28;20055;-71
2021/08/05 02:22:55;;;;;;;4.10;2.00;;;19.60;81.80;;;;;;5061040;28;20052;-72
2021/08/05 02:25:21;;;;;;;5.10;2.25;;;19.60;81.80;;;;;;5071746;28;20029;-72
2021/08/05 02:27:48;;;;;;;5.57;2.00;;;19.60;81.80;;;;;;5071324;28;20376;-72
2021/08/05 02:30:14;;;;;;;3.90;2.00;;;19.60;81.80;;;;;;5070936;28;20033;-72
2021/08/05 02:32:40;;;;;;;5.32;2.00;;;19.60;81.90;;;;;;5071245;28;20025;-71
2021/08/05 02:35:09;;;;;;;4.60;2.30;;;19.60;81.90;;;;;;5071712;28;20085;-72
2021/08/05 02:37:35;;;;;;;4.45;2.00;;;19.60;82.00;;;;;;5072040;28;20032;-72
2021/08/05 02:40:02;;;;;;;4.18;2.00;;;19.60;82.00;;;;;;5071662;28;20439;-72
2021/08/05 02:42:28;;;;;;;6.55;2.13;;;19.60;82.00;;;;;;5071480;28;20039;-72
2021/08/05 02:44:55;;;;;;;4.25;2.10;;;19.60;82.00;;;;;;5071254;28;20150;-72
2021/08/05 02:47:21;;;;;;;4.20;1.98;;;19.50;82.00;;;;;;5063859;28;20115;-72
2021/08/05 02:49:49;;;;;;;6.05;2.40;;;19.60;82.00;;;;;;5070575;28;20082;-71
2021/08/05 02:52:14;;;;;;;4.05;2.03;;;19.50;82.10;;;;;;5066552;28;20021;-72
2021/08/05 02:54:41;;;;;;;5.88;2.20;;;19.60;82.10;;;;;;5071536;28;20053;-72
2021/08/05 02:57:07;;;;;;;4.28;2.00;;;19.60;82.10;;;;;;5063327;28;20086;-72
2021/08/05 02:59:32;;;;;;;4.45;2.15;;;19.60;82.20;;;;;;5070625;28;20029;-72
2021/08/05 03:01:58;;;;;;;7.35;2.20;;;19.50;82.10;;;;;;5070980;28;20033;-72
2021/08/05 03:04:30;;;;;;;5.00;2.08;;;19.60;82.10;;;;;;5066854;28;20029;-71
2021/08/05 03:06:56;;;;;;;5.43;2.17;;;19.50;82.10;;;;;;5053817;28;20028;-72
2021/08/05 03:09:22;;;;;;;3.97;1.80;;;19.60;82.20;;;;;;5071327;28;20035;-72
2021/08/05 03:11:47;;;;;;;5.15;2.20;;;19.50;82.70;;;;;;5069774;28;20029;-71
2021/08/05 03:14:14;;;;;;;5.18;2.10;;;19.50;82.20;;;;;;5071148;28;20056;-72
2021/08/05 03:16:39;;;;;;;5.10;2.03;;;19.50;82.20;;;;;;5071526;28;20082;-71
2021/08/05 03:19:05;;;;;;;5.88;2.40;;;19.60;82.20;;;;;;5070381;28;20021;-72
2021/08/05 03:21:30;;;;;;;3.63;2.00;;;19.50;82.30;;;;;;5071013;28;20029;-71
2021/08/05 03:23:56;;;;;;;5.20;1.98;;;19.50;82.30;;;;;;5053691;28;20119;-71
2021/08/05 03:26:21;;;;;;;3.17;1.80;;;19.50;82.30;;;;;;5070412;28;20024;-71
2021/08/05 03:28:47;;;;;;;5.10;2.42;;;19.50;82.30;;;;;;5053495;28;20028;-71
2021/08/05 03:31:13;;;;;;;5.28;2.13;;;19.50;82.30;;;;;;5071159;28;20355;-71
2021/08/05 03:33:38;;;;;;;4.85;2.10;;;19.50;82.30;;;;;;5071271;28;20025;-71
2021/08/05 03:36:04;;;;;;;5.40;2.28;;;19.50;82.40;;;;;;5053546;28;20398;-71
2021/08/05 03:38:30;;;;;;;3.58;1.83;;;19.50;82.30;;;;;;5053499;28;20060;-72
2021/08/05 03:40:55;;;;;;;5.25;1.90;;;19.50;82.40;;;;;;5053036;28;20504;-72
2021/08/05 03:43:21;;;;;;;5.15;2.10;;;19.50;82.40;;;;;;5056872;28;20449;-72
2021/08/05 03:45:47;;;;;;;4.60;2.10;;;19.50;82.40;;;;;;5070891;28;20081;-72
2021/08/05 03:48:12;;;;;;;4.57;1.83;;;19.50;82.40;;;;;;5065376;28;20017;-72
2021/08/05 03:50:38;;;;;;;3.83;1.92;;;19.50;82.40;;;;;;5070260;28;20066;-72
2021/08/05 03:53:04;;;;;;;4.28;2.05;;;19.50;82.50;;;;;;5071289;28;20395;-71
2021/08/05 03:55:29;;;;;;;4.05;2.10;;;19.50;82.50;;;;;;5070416;28;20013;-71
2021/08/05 03:57:55;;;;;;;3.70;2.17;;;19.50;82.50;;;;;;5069995;28;20060;-72
2021/08/05 04:00:20;;;;;;;3.67;2.00;;;19.50;82.50;;;;;;5069318;28;20016;-71
2021/08/05 04:02:46;;;;;;;3.03;1.80;;;19.50;82.50;;;;;;5073539;28;20060;-71
2021/08/05 04:05:12;;;;;;;4.00;1.90;;;19.40;82.40;;;;;;5062030;28;20032;-72
2021/08/05 04:07:38;;;;;;;5.20;2.33;;;19.50;82.50;;;;;;5074916;28;20073;-71
2021/08/05 04:10:04;;;;;;;3.53;1.80;;;19.50;82.60;;;;;;5074342;28;20474;-71
2021/08/05 04:12:30;;;;;;;4.00;1.92;;;19.50;82.60;;;;;;5072990;28;20024;-72
2021/08/05 04:14:55;;;;;;;6.53;1.90;;;19.50;82.70;;;;;;5074180;28;20035;-72
2021/08/05 04:17:21;;;;;;;5.25;2.10;;;19.50;82.80;;;;;;5074304;28;20028;-72
2021/08/05 04:19:46;;;;;;;4.30;2.00;;;19.50;82.70;;;;;;5072998;28;20028;-71
2021/08/05 04:22:12;;;;;;;2.90;1.80;;;19.40;82.50;;;;;;5066892;28;20029;-71
2021/08/05 04:24:37;;;;;;;3.05;1.83;;;19.40;82.50;;;;;;5074475;28;20086;-72
2021/08/05 04:27:04;;;;;;;4.53;2.10;;;19.50;82.50;;;;;;5074249;28;20401;-72
2021/08/05 04:29:30;;;;;;;2.85;1.90;;;19.40;82.40;;;;;;5074334;28;20394;-72
2021/08/05 04:31:55;;;;;;;3.85;2.20;;;19.50;82.50;;;;;;5073903;28;20024;-72
2021/08/05 04:34:21;;;;;;;5.03;1.98;;;19.50;82.50;;;;;;5074199;28;20444;-71
2021/08/05 04:36:46;;;;;;;3.83;1.80;;;19.50;82.50;;;;;;5074230;28;20449;-72
2021/08/05 04:39:12;;;;;;;3.05;1.80;;;19.50;82.50;;;;;;5073658;28;20031;-72
2021/08/05 04:41:37;;;;;;;3.47;2.13;;;19.50;82.50;;;;;;5074046;28;20059;-72
2021/08/05 04:44:03;;;;;;;4.70;2.28;;;19.40;82.50;;;;;;5070304;28;20033;-72
2021/08/05 04:46:28;;;;;;;5.38;2.00;;;19.40;82.50;;;;;;5072998;28;20052;-72
2021/08/05 04:48:54;;;;;;;3.22;1.80;;;19.40;82.50;;;;;;5073905;28;20028;-72
2021/08/05 04:51:19;;;;;;;3.47;1.98;;;19.50;82.60;;;;;;5070760;28;20039;-72
2021/08/05 04:53:45;;;;;;;2.70;1.70;;;19.50;82.50;;;;;;5073611;28;20029;-72
2021/08/05 04:56:10;;;;;;;3.85;2.03;;;19.50;82.50;;;;;;5071685;28;20484;-71
2021/08/05 04:58:36;;;;;;;3.97;1.85;;;19.40;82.50;;;;;;5073610;28;20028;-72
2021/08/05 05:01:02;;;;;;;4.82;2.28;;;19.50;82.60;;;;;;5065154;28;20043;-70
2021/08/05 05:03:27;;;;;;;7.00;3.25;;;19.50;82.60;;;;;;5067356;28;20097;-71
2021/08/05 05:05:53;;;;;;;6.47;2.53;;;19.50;82.60;;;;;;5068574;28;20024;-72
2021/08/05 05:08:22;;;;;;;4.35;2.10;;;19.50;82.70;;;;;;5068457;28;20031;-72
2021/08/05 05:10:49;;;;;;;9.13;2.60;;;19.50;82.70;;;;;;5050965;28;20029;-72
2021/08/05 05:13:15;;;;;;;4.75;2.60;;;19.50;82.70;;;;;;5066467;28;20037;-72
2021/08/05 05:15:41;;;;;;;5.63;2.45;;;19.50;82.70;;;;;;5048659;28;20047;-72
2021/08/05 05:18:07;;;;;;;6.00;2.25;;;19.50;82.70;;;;;;5067521;28;20127;-72
2021/08/05 05:20:34;;;;;;;6.75;2.58;;;19.50;82.70;;;;;;5067531;28;20139;-73
2021/08/05 05:23:00;;;;;;;7.53;2.30;;;19.50;82.70;;;;;;5068319;28;20072;-75
2021/08/05 05:25:26;;;;;;;11.27;2.33;;;19.60;82.90;;;;;;5068074;28;20021;-74
2021/08/05 05:27:52;;;;;;;6.55;2.10;;;19.50;83.00;;;;;;5049138;28;20031;-72
2021/08/05 05:30:18;;;;;;;5.75;2.00;;;19.60;82.90;;;;;;5065121;28;20063;-71
2021/08/05 05:32:46;;;;;;;7.35;2.47;;;19.50;82.70;;;;;;5065661;28;20028;-73
2021/08/05 05:35:13;;;;;;;6.80;2.50;;;19.50;82.70;;;;;;5066875;28;20073;-71
2021/08/05 05:37:38;;;;;;;8.80;2.50;;;19.60;82.80;;;;;;5049451;28;20056;-72
2021/08/05 05:40:04;;;;;;;7.22;2.67;;;19.60;82.90;;;;;;5063045;28;20070;-74
2021/08/05 05:42:30;;;;;;;7.22;3.10;;;19.60;83.00;;;;;;5050120;28;20126;-72
2021/08/05 05:44:56;;;;;;;11.75;3.05;;;19.60;82.90;;;;;;5066070;28;20706;-71
2021/08/05 05:47:22;;;;;;;6.18;2.80;;;19.60;83.00;;;;;;5049237;28;20036;-73
2021/08/05 05:49:47;;;;;;;5.40;2.80;;;19.60;83.60;;;;;;5066936;28;20028;-71
2021/08/05 05:52:14;;;;;;;6.22;3.25;;;19.60;83.00;;;;;;5067310;28;20035;-72
2021/08/05 05:54:40;;;;;;;6.15;3.50;;;19.60;82.90;;;;;;5067152;28;20028;-71
2021/08/05 05:57:05;;;;;;;5.85;3.00;;;19.60;82.80;;;;;;5060372;28;20063;-72
2021/08/05 05:59:31;;;;;;;6.72;3.40;;;19.60;82.80;;;;;;5067019;28;20075;-71
2021/08/05 06:01:57;;;;;;;6.00;3.38;;;19.60;82.70;;;;;;5067217;28;20044;-73
2021/08/05 06:04:22;;;;;;;6.22;3.50;;;19.60;82.70;;;;;;5065200;28;20035;-72
2021/08/05 06:06:47;;;;;;;5.35;3.30;;;19.60;82.50;;;;;;5066922;28;20111;-72
2021/08/05 06:09:13;;;;;;;5.32;3.38;;;19.60;82.40;;;;;;5066432;28;20025;-71
2021/08/05 06:11:39;;;;;;;6.43;3.53;;;19.60;82.40;;;;;;5067078;28;20020;-72
2021/08/05 06:14:04;;;;;;;7.43;3.33;;;19.60;82.40;;;;;;5065519;28;20509;-71
2021/08/05 06:16:30;;;;;;;6.35;3.72;;;19.80;82.40;;;;;;5066947;28;20398;-72
2021/08/05 06:18:55;;;;;;;6.55;3.60;;;19.60;82.30;;;;;;5053680;28;20039;-73
2021/08/05 06:21:21;;;;;;;4.93;2.97;;;19.60;82.40;;;;;;5066766;28;20105;-71
2021/08/05 06:23:46;;;;;;;5.88;3.45;;;19.70;82.10;;;;;;5066553;28;20036;-72
2021/08/05 06:26:12;;;;;;;6.78;3.40;;;19.70;82.10;;;;;;5065398;28;20162;-71
2021/08/05 06:28:38;;;;;;;5.50;3.15;;;19.70;82.30;;;;;;5066745;28;20031;-73
2021/08/05 06:31:04;;;;;;;6.20;3.67;;;19.70;82.20;;;;;;5063304;28;20020;-72
2021/08/05 06:33:30;;;;;;;5.93;3.20;;;19.70;82.40;;;;;;5066770;28;20111;-72
2021/08/05 06:35:56;;;;;;;8.18;4.05;;;19.70;82.60;;;;;;5064415;28;20031;-72
2021/08/05 06:38:21;;;;;;;5.50;3.38;;;19.70;82.80;;;;;;5066659;28;20033;-71
2021/08/05 06:40:47;;;;;;;7.97;3.50;;;19.80;82.80;;;;;;5048398;28;20024;-70
2021/08/05 06:43:13;;;;;;;5.75;3.30;;;19.70;82.80;;;;;;5048639;28;20016;-72
2021/08/05 06:45:38;;;;;;;6.50;4.10;;;19.70;82.70;;;;;;5047530;28;20021;-70
2021/08/05 06:48:04;;;;;;;5.93;3.38;;;19.80;82.70;;;;;;5066455;28;20033;-72
2021/08/05 06:50:30;;;;;;;5.93;3.15;;;19.80;82.60;;;;;;5066221;28;20017;-72
2021/08/05 06:52:55;;;;;;;6.60;3.30;;;19.80;82.70;;;;;;5066280;28;20032;-73
2021/08/05 06:55:21;;;;;;;6.43;3.60;;;19.80;82.70;;;;;;5065022;28;20060;-72
2021/08/05 06:57:46;;;;;;;6.25;3.80;;;19.80;82.60;;;;;;5061491;28;20036;-74
2021/08/05 07:00:13;;;;;;;4.85;2.80;;;19.80;82.80;;;;;;5048081;28;20040;-73
2021/08/05 07:02:39;;;;;;;6.43;3.97;;;19.80;82.60;;;;;;5066430;28;20044;-73
2021/08/05 07:05:06;;;;;;;5.70;3.80;;;19.90;82.70;;;;;;5066240;28;20032;-73
2021/08/05 07:07:32;;;;;;;5.75;3.75;;;19.80;82.90;;;;;;5065400;28;20536;-72
2021/08/05 07:09:58;;;;;;;6.13;3.75;;;19.90;82.80;;;;;;5066231;28;20040;-73
2021/08/05 07:12:25;;;;;;;7.90;4.03;;;19.90;82.60;;;;;;5066105;28;20437;-73
2021/08/05 07:14:50;;;;;;;5.85;3.08;;;19.90;82.80;;;;;;5065683;28;20029;-72
2021/08/05 07:17:16;;;;;;;7.13;3.60;;;19.90;82.90;;;;;;5064844;28;20508;-72
2021/08/05 07:19:42;;;;;;;6.72;3.63;;;19.90;82.80;;;;;;5064780;28;20031;-72
2021/08/05 07:22:08;;;;;;;5.95;3.38;;;19.90;82.50;;;;;;5065665;28;20029;-73
2021/08/05 07:24:34;;;;;;;6.20;3.78;;;19.90;82.10;;;;;;5063896;28;20054;-73
2021/08/05 07:27:00;;;;;;;6.80;4.68;;;19.90;82.20;;;;;;5065807;28;20028;-73
2021/08/05 07:29:28;;;;;;;6.78;3.67;;;19.90;82.30;;;;;;5065770;28;20024;-72
2021/08/05 07:31:55;;;;;;;7.97;4.32;;;19.90;82.30;;;;;;5064711;28;20104;-73
2021/08/05 07:34:21;;;;;;;7.65;4.85;;;20.00;82.60;;;;;;5044159;28;20021;-70
2021/08/05 07:36:46;;;;;;;9.10;4.50;;;19.90;83.00;;;;;;5065219;28;20032;-72
2021/08/05 07:39:12;;;;;;;7.07;4.38;;;20.00;83.10;;;;;;5069036;28;20029;-71
2021/08/05 07:41:40;;;;;;;7.68;4.55;;;20.00;82.70;;;;;;5052253;28;20028;-72
2021/08/05 07:44:07;;;;;;;7.47;3.90;;;20.00;82.30;;;;;;5048272;28;20036;-75
2021/08/05 07:46:33;;;;;;;6.70;4.10;;;20.00;82.40;;;;;;5051464;28;20028;-72
2021/08/05 07:48:58;;;;;;;7.65;4.00;;;20.00;82.60;;;;;;5049275;28;20412;-71
2021/08/05 07:51:24;;;;;;;7.38;3.80;;;20.00;82.50;;;;;;5066768;28;20032;-72
2021/08/05 07:53:49;;;;;;;6.50;4.35;;;20.00;82.30;;;;;;5067318;28;20482;-77
2021/08/05 07:56:15;;;;;;;8.30;4.15;;;20.00;82.20;;;;;;5068225;28;20443;-72
2021/08/05 07:58:40;;;;;;;9.43;4.30;;;20.00;82.30;;;;;;5062394;28;20123;-70
2021/08/05 08:01:06;;;;;;;8.02;4.13;;;20.00;82.20;;;;;;5068259;28;20420;-70
2021/08/05 08:03:31;;;;;;;6.88;4.10;;;20.00;82.30;;;;;;5049944;28;20040;-70
2021/08/05 08:05:57;;;;;;;7.65;4.00;;;20.00;82.20;;;;;;5049175;28;20051;-73
2021/08/05 08:08:23;;;;;;;9.73;4.38;;;20.10;82.40;;;;;;5072359;28;20016;-73
2021/08/05 08:10:48;;;;;;;8.32;4.10;;;20.10;82.40;;;;;;5055559;28;20086;-72
2021/08/05 08:13:14;;;;;;;7.97;4.20;;;20.10;82.30;;;;;;5055260;28;20470;-72
2021/08/05 08:15:39;;;;;;;7.55;4.05;;;20.10;81.90;;;;;;5092921;22;20040;-67
2021/08/05 08:18:05;;;;;;;7.53;4.35;;;20.10;81.70;;;;;;5063651;28;20028;-66
2021/08/05 08:20:32;;;;;;;8.48;4.32;;;20.10;81.70;;;;;;5056384;28;20453;-67
2021/08/05 08:22:58;;;;;;;9.45;4.90;;;20.20;81.80;;;;;;5074829;28;20044;-67
2021/08/05 08:25:23;;;;;;;8.35;5.25;;;20.20;81.80;;;;;;5059953;28;20056;-67
2021/08/05 08:27:49;;;;;;;9.20;4.53;;;20.20;81.70;;;;;;5062403;28;20082;-66
2021/08/05 08:30:15;;;;;;;6.85;3.58;;;20.20;81.90;;;;;;5076760;28;20016;-67
2021/08/05 08:32:43;;;;;;;7.05;4.07;;;20.20;81.80;;;;;;5081496;28;20021;-67
2021/08/05 08:35:10;;;;;;;8.75;4.03;;;20.20;81.50;;;;;;5055820;28;20024;-68
2021/08/05 08:37:35;;;;;;;6.85;3.85;;;20.20;81.80;;;;;;5056203;28;20090;-66
2021/08/05 08:40:01;;;;;;;9.70;5.05;;;20.20;81.60;;;;;;5056556;28;20342;-66
2021/08/05 08:42:27;;;;;;;7.90;4.53;;;20.20;81.60;;;;;;5056397;28;20039;-66
2021/08/05 08:44:53;;;;;;;12.13;4.90;;;20.20;81.70;;;;;;5069389;28;20028;-66
2021/08/05 08:47:21;;;;;;;10.43;5.07;;;20.30;81.40;;;;;;5076311;28;20494;-67
2021/08/05 08:49:49;;;;;;;10.98;5.40;;;20.20;81.40;;;;;;5075386;28;20032;-67
2021/08/05 08:52:17;;;;;;;9.40;4.95;;;20.30;81.20;;;;;;5075973;28;20047;-65
2021/08/05 08:54:45;;;;;;;10.13;5.80;;;20.30;81.20;;;;;;5075867;28;20028;-67
2021/08/05 08:57:13;;;;;;;9.15;5.78;;;20.40;80.90;;;;;;5093970;28;20032;-67
2021/08/05 08:59:40;;;;;;;9.35;5.10;;;20.40;80.90;;;;;;5080841;28;20096;-67
2021/08/05 09:02:06;;;;;;;10.02;5.82;;;20.40;80.90;;;;;;5064428;28;20056;-67
2021/08/05 09:04:34;;;;;;;11.85;6.25;;;20.40;81.20;;;;;;5052811;28;20033;-67
2021/08/05 09:06:59;;;;;;;9.35;5.90;;;20.40;81.50;;;;;;5053263;28;20025;-68
2021/08/05 09:09:25;;;;;;;9.52;6.43;;;20.40;81.40;;;;;;5045723;28;20016;-68
2021/08/05 09:11:50;;;;;;;10.13;5.90;;;20.40;81.60;;;;;;5065747;28;20111;-69
2021/08/05 09:14:41;;;;;;;8.73;6.20;;;20.40;81.50;;;;;;5045698;28;20051;-67
2021/08/05 09:17:28;;;;;;;18.75;5.85;;;20.40;81.60;;;;;;5071177;28;20045;-68
2021/08/05 09:19:56;;;;;;;9.10;5.75;;;20.50;81.50;;;;;;5055460;28;20028;-68
2021/08/05 09:22:39;;;;;;;9.88;6.50;;;20.40;81.40;;;;;;5055695;28;20082;-68
2021/08/05 09:25:29;;;;;;;12.00;6.32;;;20.50;81.20;;;;;;5072927;28;20021;-68
2021/08/05 09:27:58;;;;;;;9.27;6.30;;;20.50;81.10;;;;;;5055499;28;20060;-68
2021/08/05 09:30:27;;;;;;;10.13;6.40;;;20.50;80.90;;;;;;5055534;28;20738;-68
2021/08/05 09:32:53;;;;;;;8.07;5.57;;;20.60;80.80;;;;;;5073021;28;20359;-68
2021/08/05 09:35:19;;;;;;;8.80;5.43;;;20.50;80.70;;;;;;5055095;28;20012;-69
2021/08/05 09:37:44;;;;;;;8.75;5.38;;;20.60;80.70;;;;;;5072054;28;20028;-68
2021/08/05 09:40:15;;;;;;;7.97;5.90;;;20.60;80.50;;;;;;5072116;28;20101;-68
2021/08/05 09:42:53;;;;;;;9.18;6.13;;;20.70;80.30;;;;;;5072031;28;20025;-68
2021/08/05 09:45:33;;;;;;;10.27;5.53;;;20.80;80.10;;;;;;5072909;28;20031;-68
2021/08/05 09:47:59;;;;;;;8.93;5.63;;;20.90;79.40;;;;;;5055307;28;20397;-68
2021/08/05 09:50:25;;;;;;;8.35;5.38;;;21.00;78.90;;;;;;5055038;28;20031;-68
2021/08/05 09:52:50;;;;;;;7.60;4.90;;;21.10;78.70;;;;;;5055405;28;20028;-68
2021/08/05 09:55:22;;;;;;;7.40;4.93;;;21.10;79.00;;;;;;5072566;28;20077;-68
2021/08/05 09:57:56;;;;;;;7.10;4.65;;;21.20;78.10;;;;;;5073022;28;20029;-68
2021/08/05 10:00:22;;;;;;;7.38;5.07;;;21.30;77.50;;;;;;5054831;28;20032;-68
2021/08/05 10:02:49;;;;;;;8.13;5.22;;;21.30;77.30;;;;;;5072775;28;20478;-68
2021/08/05 10:05:25;;;;;;;7.40;5.20;;;21.40;77.30;;;;;;5072368;28;20028;-68
2021/08/05 10:07:59;;;;;;;6.95;5.00;;;21.50;77.00;;;;;;5072678;28;20031;-68
2021/08/05 10:10:26;;;;;;;8.15;4.78;;;21.50;75.90;;;;;;5072675;28;20027;-68
2021/08/05 10:13:00;;;;;;;8.65;4.63;;;21.60;75.30;;;;;;5072674;28;20021;-68
2021/08/05 10:15:27;;;;;;;7.90;4.72;;;21.70;75.10;;;;;;5071037;28;20463;-68
2021/08/05 10:17:59;;;;;;;6.40;4.13;;;21.60;75.10;;;;;;5072699;28;20028;-68
2021/08/05 10:20:26;;;;;;;6.50;4.07;;;21.60;75.30;;;;;;5072509;28;20029;-68
2021/08/05 10:22:55;;;;;;;6.38;3.65;;;21.60;75.40;;;;;;5072430;28;20082;-68
2021/08/05 10:25:24;;;;;;;7.45;3.97;;;21.60;75.00;;;;;;5072054;28;20024;-68
2021/08/05 10:27:52;;;;;;;6.40;3.97;;;21.70;75.00;;;;;;5069621;28;20394;-68
2021/08/05 10:30:18;;;;;;;6.35;3.70;;;21.70;74.80;;;;;;5041689;28;20025;-68
2021/08/05 10:32:45;;;;;;;8.05;3.95;;;21.70;74.70;;;;;;5070191;28;20497;-69
2021/08/05 10:35:12;;;;;;;23.30;6.63;;;21.70;75.00;;;;;;5052714;28;20025;-68
2021/08/05 10:37:38;;;;;;;19.35;5.28;;;21.80;74.70;;;;;;5069848;28;20032;-68
2021/08/05 10:40:07;;;;;;;15.50;4.82;;;21.80;74.50;;;;;;5052224;28;20078;-69
2021/08/05 10:42:33;;;;;;;10.25;4.03;;;21.70;74.70;;;;;;5056527;28;20363;-69
2021/08/05 10:45:00;;;;;;;9.95;4.18;;;21.70;75.00;;;;;;5053106;28;20028;-69
2021/08/05 10:47:31;;;;;;;8.27;4.55;;;21.70;75.50;;;;;;5071656;28;20441;-68
2021/08/05 10:50:00;;;;;;;7.63;4.45;;;21.70;75.20;;;;;;5071477;28;20025;-68
2021/08/05 10:52:38;;;;;;;8.90;4.60;;;21.70;74.70;;;;;;5053781;28;20050;-68
2021/08/05 10:55:16;;;;;;;13.10;5.35;;;21.70;74.80;;;;;;5066695;28;20032;-69
2021/08/05 10:57:42;;;;;;;10.10;4.70;;;21.80;74.90;;;;;;5071815;28;20044;-69
2021/08/05 11:00:17;;;;;;;11.73;4.55;;;21.80;75.00;;;;;;5065929;28;20327;-69
2021/08/05 11:02:53;;;;;;;7.20;4.10;;;21.90;74.50;;;;;;5070902;28;20440;-69
2021/08/05 11:05:21;;;;;;;8.02;4.20;;;22.00;74.50;;;;;;5045525;28;20028;-69
2021/08/05 11:07:52;;;;;;;9.85;4.32;;;22.10;73.80;;;;;;5055377;28;20028;-69
2021/08/05 11:10:19;;;;;;;11.00;4.38;;;22.10;73.40;;;;;;5044439;28;20558;-66
2021/08/05 11:12:50;;;;;;;11.57;4.75;;;22.20;73.50;;;;;;5060194;28;20037;-68
2021/08/05 11:15:23;;;;;;;14.70;4.50;;;22.20;73.40;;;;;;5070971;28;20070;-68
2021/08/05 11:18:06;;;;;;;10.20;4.38;;;22.10;73.60;;;;;;5052158;28;20032;-68
2021/08/05 11:20:39;;;;;;;9.18;4.35;;;22.00;73.10;;;;;;5051430;28;20036;-68
2021/08/05 11:23:06;;;;;;;6.38;4.35;;;22.10;73.30;;;;;;5051542;28;20029;-68
2021/08/05 11:25:50;;;;;;;9.70;4.30;;;22.00;72.00;;;;;;5051147;28;20556;-68
2021/08/05 11:28:29;;;;;;;10.80;4.43;;;22.00;73.00;;;;;;5033618;28;20027;-68
2021/08/05 11:30:59;;;;;;;6.57;3.38;;;22.00;73.00;;;;;;5033612;28;20017;-68
2021/08/05 11:33:37;;;;;;;10.17;4.13;;;22.00;72.90;;;;;;5051451;28;20494;-68
2021/08/05 11:36:30;;;;;;;5.70;3.25;;;22.10;73.10;;;;;;5033230;28;20439;-68
2021/08/05 11:39:02;;;;;;;7.05;3.72;;;22.00;72.70;;;;;;5051409;28;20028;-68
2021/08/05 11:41:42;;;;;;;6.63;4.00;;;22.10;72.30;;;;;;5051385;28;20021;-67
2021/08/05 11:44:34;;;;;;;8.35;3.83;;;22.10;71.20;;;;;;5051280;28;20013;-68
2021/08/05 11:47:06;;;;;;;6.45;3.70;;;22.10;71.40;;;;;;5051194;28;20418;-68
2021/08/05 11:49:38;;;;;;;5.68;3.20;;;22.10;72.00;;;;;;5033481;28;20033;-68
2021/08/05 11:52:10;;;;;;;5.97;3.85;;;22.20;71.20;;;;;;5051348;28;20052;-68
2021/08/05 11:54:37;;;;;;;7.50;4.05;;;22.20;69.50;;;;;;5050837;28;20029;-68
2021/08/05 11:57:04;;;;;;;6.75;3.30;;;22.20;70.80;;;;;;5051461;28;20029;-68
2021/08/05 11:59:42;;;;;;;7.57;3.40;;;22.20;71.00;;;;;;5051244;28;20017;-68
2021/08/05 12:02:11;;;;;;;5.57;3.45;;;22.10;71.20;;;;;;5051302;28;20032;-68
2021/08/05 12:04:37;;;;;;;6.68;3.05;;;22.20;71.60;;;;;;5050872;28;20100;-68
2021/08/05 12:07:16;;;;;;;6.47;3.58;;;22.10;71.70;;;;;;5050824;28;20040;-68
2021/08/05 12:09:41;;;;;;;5.63;3.10;;;22.10;71.20;;;;;;5051181;28;20021;-68
2021/08/05 12:12:08;;;;;;;6.80;3.50;;;22.10;71.70;;;;;;5051166;28;20020;-68
2021/08/05 12:14:34;;;;;;;7.95;3.70;;;22.10;71.80;;;;;;5050761;28;20025;-68
2021/08/05 12:17:00;;;;;;;6.63;3.70;;;22.10;71.70;;;;;;5048748;28;20044;-68
2021/08/05 12:19:26;;;;;;;5.57;3.30;;;22.10;71.80;;;;;;5050959;28;20064;-68
2021/08/05 12:21:52;;;;;;;6.10;3.60;;;22.10;71.90;;;;;;5031165;28;20039;-68
2021/08/05 12:24:18;;;;;;;6.75;3.65;;;22.10;71.70;;;;;;5051913;28;20036;-68
2021/08/05 12:26:43;;;;;;;6.10;3.80;;;22.10;71.80;;;;;;5054415;28;20029;-68
2021/08/05 12:29:10;;;;;;;5.15;3.28;;;22.20;71.50;;;;;;5054686;28;20021;-68
2021/08/05 12:31:36;;;;;;;4.90;2.90;;;22.20;71.50;;;;;;5054512;28;20025;-68
2021/08/05 12:34:02;;;;;;;6.75;3.85;;;22.20;71.30;;;;;;5054607;28;20510;-68
2021/08/05 12:36:28;;;;;;;5.60;3.22;;;22.20;71.40;;;;;;5054275;28;20025;-68
2021/08/05 12:39:10;;;;;;;6.25;3.40;;;22.20;71.80;;;;;;5054445;28;20074;-68
2021/08/05 12:41:51;;;;;;;5.22;3.22;;;22.10;71.90;;;;;;5036634;28;20122;-68
2021/08/05 12:44:23;;;;;;;5.90;3.63;;;22.10;71.90;;;;;;5054282;28;20036;-68
2021/08/05 12:46:51;;;;;;;5.93;3.80;;;22.10;71.80;;;;;;5036408;28;20033;-68
2021/08/05 12:49:18;;;;;;;5.93;4.00;;;22.00;71.80;;;;;;5054395;28;20462;-68